Terminal Aerodrome Forecast
Issued by NWS Sterling, VA

Home | Current Version | Previous Version | Text Only | Print | Product List | Glossary On
Versions: 1 2 3 4 5 6 7 8 9 10 11 12 13 14 15 16 17 18 19
000
FTUS41 KLWX 050541
TAFCHO
TAF
KCHO 050541Z 0506/0606 05005KT 5SM -RA OVC008
     FM051200 02005KT 2SM SHRA OVC009
     FM052200 01005KT 3SM -SHRA BR OVC010=

USA.gov is the U.S. government's official web portal to all federal, state and local government web resources and services.